Canal Fulton, Ohio
Current Conditions -  °F | °C
As of 12:51 PM on Friday 28 Nov 2014 (Local Time) from KCAK Reporting Station
Overcast Overcast  
Wind Chill: 17°   Ceiling: 3800
Heat Index: 26°   Visibility: 10mi
Dew Point: 15°   Wind: 9mph
Humidity: 63%   Direction: 240°WSW
Pressure: 30.27"   Gusts: NA
Location:  40.89°N, 81.6°W
Report Text: KCAK 281751Z 24008KT 10SM FEW021 OVC038 M03/M09 A3027 RMK AO2 SLP267 4/001 60000 T10331094 11033 21072 58020
Loading
Personal Weather Stations






























Interactive Weather Map New forecast layout! Learn more

10-Day Weather Forecast

Advertisements
Track Severe Weather on mobile